Time;durP1;ratioP1;P1;durP2;ratioP2;P2;SDS_P1;SDS_P2;PMS_P1;PMS_P2;Temp;Humidity;BMP_temperature;BMP_pressure;BME280_temperature;BME280_humidity;BME280_pressure;Samples;Min_cycle;Max_cycle;Signal;HPM_P1;HPM_P2
2023/03/30 00:01:10;;;;;;;1.20;1.10;;;;;;;11.13;35.07;99634.64;104553;1252;72194;-60
2023/03/30 00:03:43;;;;;;;1.90;1.40;;;;;;;11.11;35.21;99638.25;104720;1254;69036;-61
2023/03/30 00:06:13;;;;;;;1.80;1.20;;;;;;;11.12;35.26;99637.84;104430;1257;72883;-60
2023/03/30 00:08:42;;;;;;;1.90;1.30;;;;;;;11.22;35.34;99639.67;104530;1256;60850;-60
2023/03/30 00:11:12;;;;;;;1.60;1.50;;;;;;;11.13;35.02;99639.23;104701;1257;60789;-61
2023/03/30 00:13:41;;;;;;;1.20;1.00;;;;;;;11.11;35.27;99640.00;104469;1254;73613;-61
2023/03/30 00:16:11;;;;;;;2.40;1.70;;;;;;;10.97;35.36;99638.70;104564;1254;67786;-60
2023/03/30 00:18:40;;;;;;;1.50;1.40;;;;;;;11.04;35.33;99634.01;104686;1254;71415;-61
2023/03/30 00:21:16;;;;;;;1.70;1.40;;;;;;;11.02;35.39;99633.39;104528;1267;60872;-60
2023/03/30 00:23:46;;;;;;;1.80;1.50;;;;;;;10.99;35.32;99628.65;104537;1254;60863;-60
2023/03/30 00:26:15;;;;;;;1.90;1.40;;;;;;;10.97;35.49;99630.45;104596;1262;72670;-60
2023/03/30 00:28:44;;;;;;;1.90;1.40;;;;;;;11.01;35.46;99630.46;104566;1270;68148;-60
2023/03/30 00:31:13;;;;;;;1.60;1.40;;;;;;;11.02;34.90;99630.77;104497;1258;72444;-60
2023/03/30 00:33:42;;;;;;;1.30;1.20;;;;;;;11.06;35.28;99629.70;104560;1257;61127;-60
2023/03/30 00:36:15;;;;;;;2.60;1.50;;;;;;;11.02;35.37;99631.81;104581;1257;60822;-60
2023/03/30 00:38:44;;;;;;;1.90;1.30;;;;;;;11.03;35.26;99634.21;104629;1257;72706;-60
2023/03/30 00:41:13;;;;;;;1.30;1.20;;;;;;;10.98;35.27;99636.90;104629;1257;69003;-60
2023/03/30 00:44:37;;;;;;;2.10;1.40;;;;;;;10.92;35.29;99639.96;104545;1257;71596;-60
2023/03/30 00:47:07;;;;;;;2.20;1.60;;;;;;;11.03;35.18;99638.27;104039;1277;60987;-60
2023/03/30 00:49:35;;;;;;;1.40;1.20;;;;;;;10.98;35.23;99637.77;104552;1253;60737;-60
2023/03/30 00:52:04;;;;;;;1.80;1.40;;;;;;;11.02;34.98;99640.79;104484;1257;72708;-60
2023/03/30 00:54:35;;;;;;;1.20;1.10;;;;;;;10.98;35.03;99644.47;104643;1259;69760;-60
2023/03/30 00:57:04;;;;;;;2.10;1.30;;;;;;;10.85;35.34;99645.73;104565;1256;71082;-60
2023/03/30 00:59:37;;;;;;;1.50;1.20;;;;;;;10.94;35.18;99648.46;104494;1254;61684;-60
2023/03/30 01:02:06;;;;;;;2.00;1.50;;;;;;;10.87;35.13;99646.33;104619;1270;61682;-60
2023/03/30 01:04:36;;;;;;;1.30;1.20;;;;;;;10.93;35.03;99652.20;104545;1254;73639;-60
2023/03/30 01:07:04;;;;;;;1.40;1.20;;;;;;;10.79;35.15;99652.29;104639;1257;69361;-60
2023/03/30 01:09:33;;;;;;;1.80;1.30;;;;;;;10.92;35.13;99653.67;104597;1254;73903;-60
2023/03/30 01:12:04;;;;;;;2.10;1.40;;;;;;;10.84;35.14;99656.30;104626;1261;61781;-60
2023/03/30 01:14:32;;;;;;;2.90;1.80;;;;;;;10.84;35.15;99659.77;104514;1259;61692;-60
2023/03/30 01:17:19;;;;;;;2.10;1.30;;;;;;;10.88;35.14;99658.55;104559;1259;75457;-59
2023/03/30 01:20:01;;;;;;;1.80;1.50;;;;;;;10.77;34.98;99663.22;104613;1254;68909;-60
2023/03/30 01:22:48;;;;;;;2.00;1.60;;;;;;;10.66;35.02;99663.92;104527;1253;72230;-60
2023/03/30 01:25:23;;;;;;;;;;;;;;;10.62;35.31;99666.17;104584;1264;61716;-60
2023/03/30 01:28:30;;;;;;;3.20;1.60;;;;;;;10.62;35.19;99668.98;104689;1256;61643;-61
2023/03/30 01:31:24;;;;;;;2.50;1.70;;;;;;;10.53;35.22;99674.27;104577;1257;74037;-60
2023/03/30 01:34:21;;;;;;;2.00;1.60;;;;;;;10.38;35.63;99675.95;104510;1270;68520;-61
2023/03/30 01:37:03;;;;;;;1.20;1.00;;;;;;;10.35;35.54;99677.27;104541;1256;71912;-62
2023/03/30 01:39:44;;;;;;;1.40;1.30;;;;;;;10.36;35.65;99680.23;104598;1254;61698;-59
2023/03/30 01:42:20;;;;;;;1.40;1.30;;;;;;;10.27;35.56;99680.90;104652;1256;61563;-61
2023/03/30 01:44:58;;;;;;;3.30;1.20;;;;;;;10.45;35.72;99680.38;104558;1252;72810;-59
2023/03/30 01:47:37;;;;;;;2.00;1.20;;;;;;;10.39;35.47;99679.76;104553;1253;69064;-60
2023/03/30 01:50:16;;;;;;;1.60;1.50;;;;;;;10.37;35.71;99678.77;104572;1270;73037;-60
2023/03/30 01:52:55;;;;;;;1.00;0.90;;;;;;;10.29;35.56;99685.90;104659;1270;61633;-59
2023/03/30 01:55:40;;;;;;;1.30;1.20;;;;;;;10.32;35.76;99690.00;104620;1257;61691;-59
2023/03/30 01:58:19;;;;;;;1.40;1.10;;;;;;;10.44;35.43;99688.66;104639;1257;71713;-61
2023/03/30 02:00:49;;;;;;;1.90;1.10;;;;;;;10.42;35.24;99694.88;104558;1253;69398;-60
2023/03/30 02:03:21;;;;;;;1.00;1.00;;;;;;;10.39;35.39;99698.65;104612;1263;72241;-60
2023/03/30 02:05:51;;;;;;;1.50;1.30;;;;;;;10.08;35.79;99703.39;104622;1263;62246;-60
2023/03/30 02:08:24;;;;;;;1.20;1.10;;;;;;;10.17;35.91;99707.95;104527;1271;61685;-61
2023/03/30 02:10:54;;;;;;;1.40;1.30;;;;;;;10.25;35.80;99710.44;104676;1260;72614;-61
2023/03/30 02:13:22;;;;;;;1.50;1.40;;;;;;;10.29;35.53;99711.16;104602;1254;69090;-60
2023/03/30 02:15:57;;;;;;;1.40;1.30;;;;;;;10.35;35.60;99709.86;104648;1257;72233;-61
2023/03/30 02:18:27;;;;;;;1.40;1.20;;;;;;;10.55;35.29;99709.55;104548;1253;61701;-60
2023/03/30 02:20:58;;;;;;;1.40;1.30;;;;;;;10.56;35.12;99711.64;104500;1252;61720;-61
2023/03/30 02:23:27;;;;;;;1.70;1.10;;;;;;;10.62;35.01;99709.66;104521;1258;73384;-60
2023/03/30 02:25:56;;;;;;;1.10;1.00;;;;;;;10.42;35.24;99716.27;104571;1253;67747;-60
2023/03/30 02:28:26;;;;;;;1.50;0.90;;;;;;;10.29;35.52;99718.85;104587;1254;71427;-60
2023/03/30 02:30:56;;;;;;;1.70;1.20;;;;;;;10.30;35.44;99721.30;104489;1253;61682;-60
2023/03/30 02:33:41;;;;;;;1.30;1.10;;;;;;;10.35;35.39;99720.57;104657;1260;61605;-61
2023/03/30 02:36:48;;;;;;;1.10;1.00;;;;;;;10.30;35.55;99724.44;104570;1272;73555;-60
2023/03/30 02:39:20;;;;;;;1.40;1.30;;;;;;;10.37;35.33;99726.11;104577;1263;68717;-59
2023/03/30 02:41:58;;;;;;;3.70;1.20;;;;;;;10.44;35.33;99727.73;104428;1257;71359;-60
2023/03/30 02:44:51;;;;;;;1.30;1.20;;;;;;;10.34;35.12;99726.72;104624;1254;61789;-60
2023/03/30 02:47:29;;;;;;;1.50;1.40;;;;;;;10.30;35.42;99730.02;104540;1257;61688;-60
2023/03/30 02:50:00;;;;;;;2.10;1.30;;;;;;;10.22;35.41;99732.98;104608;1256;72852;-62
2023/03/30 02:52:52;;;;;;;1.30;1.00;;;;;;;10.18;35.39;99737.48;104627;1254;68159;-60
2023/03/30 02:55:44;;;;;;;1.90;1.30;;;;;;;10.21;35.46;99736.67;104478;1257;73005;-62
2023/03/30 02:58:32;;;;;;;2.00;0.90;;;;;;;10.14;35.54;99733.45;104570;1260;61601;-60
2023/03/30 03:01:19;;;;;;;1.40;1.20;;;;;;;10.15;35.68;99738.33;104671;1254;61625;-60
2023/03/30 03:04:09;;;;;;;2.20;1.00;;;;;;;10.15;35.57;99743.24;104533;1254;73703;-60
2023/03/30 03:06:47;;;;;;;1.00;0.90;;;;;;;10.18;35.39;99746.09;104512;1259;70160;-60
2023/03/30 03:09:16;;;;;;;1.20;1.00;;;;;;;10.06;35.72;99745.67;104575;1259;71013;-60
2023/03/30 03:11:45;;;;;;;1.40;1.10;;;;;;;9.90;35.90;99749.64;104445;1263;61784;-61
2023/03/30 03:14:13;;;;;;;3.10;1.20;;;;;;;9.97;36.01;99754.77;104638;1267;61680;-61
2023/03/30 03:16:42;;;;;;;1.40;1.30;;;;;;;9.94;35.70;99761.54;104765;1257;72938;-61
2023/03/30 03:19:15;;;;;;;1.80;1.20;;;;;;;9.96;35.80;99767.63;104746;1257;68230;-61
2023/03/30 03:21:48;;;;;;;1.80;1.50;;;;;;;9.90;35.92;99764.14;104550;1269;71492;-60
2023/03/30 03:24:17;;;;;;;1.10;1.00;;;;;;;9.98;35.88;99764.19;104770;1254;61717;-59
2023/03/30 03:27:11;;;;;;;1.50;1.20;;;;;;;10.08;35.40;99765.21;104592;1257;61604;-59
2023/03/30 03:29:58;;;;;;;;;;;;;;;10.05;35.60;99764.98;104576;1270;72657;-60
2023/03/30 03:32:27;;;;;;;1.80;1.10;;;;;;;10.01;35.41;99763.92;104505;1254;69105;-60
2023/03/30 03:34:56;;;;;;;2.50;1.50;;;;;;;9.89;35.71;99765.77;104663;1257;71441;-60
2023/03/30 03:37:25;;;;;;;1.80;1.20;;;;;;;9.86;36.07;99769.36;104444;1259;61573;-60
2023/03/30 03:39:55;;;;;;;1.80;1.50;;;;;;;9.93;35.88;99769.98;104572;1269;61599;-60
2023/03/30 03:42:25;;;;;;;1.60;1.30;;;;;;;9.91;35.74;99768.66;104626;1255;73802;-60
2023/03/30 03:45:08;;;;;;;1.50;1.40;;;;;;;9.83;36.03;99768.64;104659;1269;68226;-60
2023/03/30 03:47:37;;;;;;;1.60;1.40;;;;;;;9.96;35.87;99770.42;104606;1251;73115;-61
2023/03/30 03:50:08;;;;;;;2.30;1.70;;;;;;;9.89;35.89;99771.39;104825;1257;61714;-60
2023/03/30 03:52:38;;;;;;;2.40;1.60;;;;;;;9.72;36.09;99770.09;104600;1251;61681;-61
2023/03/30 03:55:07;;;;;;;4.40;1.50;;;;;;;9.82;36.02;99769.17;104660;1255;73052;-60
2023/03/30 03:57:38;;;;;;;2.50;1.70;;;;;;;9.76;36.12;99769.92;104680;1254;68246;-60
2023/03/30 04:00:15;;;;;;;1.50;1.40;;;;;;;9.71;36.20;99772.41;104990;1254;71247;-60
2023/03/30 04:03:05;;;;;;;1.90;1.50;;;;;;;9.80;35.99;99775.22;104802;1251;61704;-61
2023/03/30 04:05:34;;;;;;;1.50;1.30;;;;;;;9.92;36.17;99776.88;104497;1256;61692;-60
2023/03/30 04:08:09;;;;;;;2.50;1.70;;;;;;;9.89;35.86;99779.06;104959;1251;74202;-60
2023/03/30 04:10:39;;;;;;;3.70;1.80;;;;;;;9.81;36.06;99784.80;104726;1250;68154;-61
2023/03/30 04:13:47;;;;;;;1.70;1.50;;;;;;;9.81;36.28;99784.98;104544;1266;70934;-60
2023/03/30 04:16:36;;;;;;;2.20;1.50;;;;;;;9.90;36.13;99780.08;104302;1264;61936;-59
2023/03/30 04:19:45;;;;;;;2.30;1.70;;;;;;;9.79;36.22;99779.64;104699;1254;61628;-60
2023/03/30 04:22:41;;;;;;;2.50;1.80;;;;;;;9.68;36.41;99783.73;104860;1253;72711;-63
2023/03/30 04:25:39;;;;;;;2.20;2.00;;;;;;;9.76;36.15;99784.98;104810;1259;70752;-60
2023/03/30 04:28:31;;;;;;;2.40;2.00;;;;;;;9.69;36.23;99785.27;105017;1253;72418;-59
2023/03/30 04:31:11;;;;;;;2.70;2.00;;;;;;;9.76;36.49;99786.23;105129;1251;61682;-59
2023/03/30 04:34:01;;;;;;;2.30;2.10;;;;;;;9.83;36.24;99785.60;105045;1249;61697;-60
2023/03/30 04:36:48;;;;;;;3.90;2.80;;;;;;;9.91;36.40;99784.08;105068;1253;73397;-61
2023/03/30 04:39:56;;;;;;;4.60;2.70;;;;;;;9.97;36.03;99789.11;104726;1254;67951;-61
2023/03/30 04:42:39;;;;;;;3.10;2.30;;;;;;;10.00;36.03;99794.93;104816;1260;71994;-60
2023/03/30 04:45:22;;;;;;;3.50;2.60;;;;;;;10.10;35.98;99798.23;104593;1256;61653;-62
2023/03/30 04:48:12;;;;;;;3.40;2.50;;;;;;;10.11;36.20;99790.51;104572;1256;61625;-61
2023/03/30 04:51:09;;;;;;;2.80;1.80;;;;;;;10.32;35.47;99794.27;104804;1257;74144;-61
2023/03/30 04:53:57;;;;;;;3.00;2.70;;;;;;;10.35;35.44;99793.81;104745;1259;67906;-61
2023/03/30 04:56:39;;;;;;;3.40;2.20;;;;;;;10.33;35.53;99794.05;104663;1267;71887;-61
2023/03/30 04:59:30;;;;;;;2.90;2.40;;;;;;;10.34;35.56;99793.30;104741;1255;61683;-62
2023/03/30 05:02:18;;;;;;;2.70;2.00;;;;;;;10.43;35.41;99800.51;104566;1256;61641;-59
2023/03/30 05:04:47;;;;;;;2.70;2.20;;;;;;;10.56;35.50;99801.92;104634;1255;73154;-61
2023/03/30 05:07:28;;;;;;;2.80;2.00;;;;;;;10.69;35.11;99802.79;104709;1255;69003;-61
2023/03/30 05:10:10;;;;;;;3.30;1.90;;;;;;;10.75;34.73;99804.66;104800;1256;72288;-61
2023/03/30 05:12:47;;;;;;;3.60;2.00;;;;;;;10.75;34.85;99803.40;104459;1257;61730;-62
2023/03/30 05:15:28;;;;;;;2.90;1.90;;;;;;;10.73;34.61;99805.08;104499;1252;61663;-62
2023/03/30 05:18:23;;;;;;;4.30;2.00;;;;;;;10.86;34.89;99806.46;104527;1250;72351;-61
2023/03/30 05:21:12;;;;;;;2.90;1.90;;;;;;;11.01;34.53;99800.76;104612;1254;69851;-62
2023/03/30 05:23:59;;;;;;;2.30;1.70;;;;;;;10.97;34.53;99801.62;104572;1250;70939;-61
2023/03/30 05:27:04;;;;;;;1.70;1.50;;;;;;;11.10;34.89;99800.23;105056;1254;61579;-63
2023/03/30 05:29:58;;;;;;;2.00;1.50;;;;;;;10.97;34.74;99799.38;104858;1254;61866;-64
2023/03/30 05:32:31;;;;;;;2.50;1.60;;;;;;;11.02;34.57;99798.98;104627;1255;72529;-63
2023/03/30 05:35:27;;;;;;;2.00;1.70;;;;;;;11.22;34.21;99795.47;104666;1255;68121;-64
2023/03/30 05:38:11;;;;;;;1.90;1.70;;;;;;;11.32;34.13;99794.23;104838;1253;73182;-64
2023/03/30 05:40:59;;;;;;;2.60;2.00;;;;;;;11.23;34.23;99793.52;104539;1266;63452;-64
2023/03/30 05:43:47;;;;;;;2.10;1.60;;;;;;;11.33;34.42;99788.19;104884;1250;63389;-65
2023/03/30 05:46:35;;;;;;;2.00;1.50;;;;;;;11.33;34.23;99792.21;104897;1253;72291;-64
2023/03/30 05:49:22;;;;;;;2.40;1.90;;;;;;;11.49;34.01;99796.77;105049;1260;68500;-64
2023/03/30 05:52:05;;;;;;;2.70;2.00;;;;;;;11.38;34.72;99801.49;104895;1267;72497;-64
2023/03/30 05:54:57;;;;;;;3.70;2.50;;;;;;;11.63;34.87;99800.35;104725;1249;61718;-64
2023/03/30 05:57:44;;;;;;;;;;;;;;;11.63;34.45;99800.56;105212;1261;60978;-64
2023/03/30 06:00:27;;;;;;;2.40;2.00;;;;;;;11.64;33.53;99794.91;104954;1253;73650;-61
2023/03/30 06:03:13;;;;;;;1.70;1.40;;;;;;;11.71;33.92;99797.19;104914;1257;68507;-65
2023/03/30 06:05:43;;;;;;;2.70;1.80;;;;;;;11.50;34.24;99797.95;104616;1263;72246;-66
2023/03/30 06:08:12;;;;;;;2.50;1.90;;;;;;;11.56;34.47;99800.48;105013;1266;62492;-65
2023/03/30 06:10:51;;;;;;;2.60;2.00;;;;;;;11.86;33.76;99799.36;104855;1251;61711;-67
2023/03/30 06:13:19;;;;;;;1.90;1.70;;;;;;;11.95;33.71;99803.73;104664;1256;73280;-65
2023/03/30 06:15:59;;;;;;;2.80;1.70;;;;;;;11.94;33.84;99806.75;104859;1269;68312;-66
2023/03/30 06:18:30;;;;;;;2.00;1.80;;;;;;;12.18;33.50;99801.43;104963;1255;72480;-65
2023/03/30 06:21:07;;;;;;;2.00;1.60;;;;;;;12.17;33.46;99808.66;105327;1251;61663;-66
2023/03/30 06:23:48;;;;;;;2.40;1.70;;;;;;;12.21;33.69;99809.04;104921;1251;61665;-65
2023/03/30 06:26:19;;;;;;;2.70;1.50;;;;;;;12.30;33.10;99809.29;104942;1261;72339;-65
2023/03/30 06:28:50;;;;;;;2.30;1.60;;;;;;;12.32;34.03;99812.02;105121;1261;68117;-64
2023/03/30 06:31:19;;;;;;;2.00;1.60;;;;;;;12.28;33.73;99808.48;105266;1253;72488;-66
2023/03/30 06:33:52;;;;;;;2.10;1.40;;;;;;;12.30;33.19;99806.50;104985;1249;61655;-64
2023/03/30 06:36:21;;;;;;;1.50;1.40;;;;;;;12.26;33.22;99807.88;105116;1251;61586;-67
2023/03/30 06:39:10;;;;;;;1.90;1.70;;;;;;;12.36;32.81;99803.04;104968;1255;72863;-65
2023/03/30 06:41:39;;;;;;;2.10;1.60;;;;;;;12.51;32.70;99802.68;105247;1248;69093;-66
2023/03/30 06:44:16;;;;;;;1.70;1.30;;;;;;;12.59;33.34;99797.89;104767;1254;71889;-64
2023/03/30 06:46:46;;;;;;;1.50;0.90;;;;;;;12.73;33.68;99795.46;108262;1249;61580;-74
2023/03/30 06:49:15;;;;;;;2.60;1.10;;;;;;;12.81;32.68;99788.87;107142;1249;61666;-67
2023/03/30 06:51:44;;;;;;;1.20;1.00;;;;;;;13.04;33.09;99787.23;105742;1250;72484;-70
2023/03/30 06:54:13;;;;;;;1.60;1.20;;;;;;;13.08;32.79;99791.07;105128;1251;68880;-66
2023/03/30 06:56:51;;;;;;;2.40;1.20;;;;;;;13.21;33.02;99788.82;105098;1249;71981;-66
2023/03/30 06:59:21;;;;;;;2.70;1.40;;;;;;;13.24;32.90;99785.48;105398;1252;61556;-65
2023/03/30 07:02:13;;;;;;;1.70;1.30;;;;;;;13.44;32.92;99788.17;105117;1261;61625;-63
2023/03/30 07:04:51;;;;;;;1.60;1.20;;;;;;;13.53;31.07;99787.35;105134;1253;73573;-68
2023/03/30 07:07:52;;;;;;;1.80;1.20;;;;;;;13.61;32.11;99784.30;104940;1248;69031;-66
2023/03/30 07:10:21;;;;;;;1.20;0.90;;;;;;;13.66;31.32;99781.91;105199;1254;71327;-66
2023/03/30 07:12:50;;;;;;;3.30;1.20;;;;;;;13.77;31.57;99781.31;105361;1253;61665;-66
2023/03/30 07:15:18;;;;;;;1.30;0.90;;;;;;;13.83;32.08;99780.63;105257;1256;61801;-70
2023/03/30 07:17:47;;;;;;;1.20;0.80;;;;;;;13.91;31.12;99778.11;104824;1251;74897;-65
2023/03/30 07:20:22;;;;;;;0.90;0.70;;;;;;;13.83;31.78;99779.42;105439;1250;67804;-66
2023/03/30 07:23:05;;;;;;;1.50;0.80;;;;;;;14.04;30.55;99771.57;105418;1250;71959;-67
2023/03/30 07:25:34;;;;;;;0.90;0.70;;;;;;;14.08;30.90;99773.52;104577;1271;61726;-65
2023/03/30 07:28:09;;;;;;;1.50;1.20;;;;;;;14.19;30.78;99767.91;105111;1254;61590;-64
2023/03/30 07:30:38;;;;;;;1.20;0.70;;;;;;;14.26;31.02;99771.94;105072;1266;73884;-66
2023/03/30 07:33:11;;;;;;;2.40;1.60;;;;;;;14.33;30.36;99770.89;105037;1256;69345;-64
2023/03/30 07:35:48;;;;;;;1.60;0.80;;;;;;;14.35;29.71;99766.88;105157;1251;72236;-66
2023/03/30 07:38:21;;;;;;;2.00;1.40;;;;;;;14.32;30.55;99768.30;105443;1257;61602;-64
2023/03/30 07:40:53;;;;;;;2.00;1.20;;;;;;;14.27;29.92;99770.52;105118;1253;61667;-68
2023/03/30 07:43:23;;;;;;;1.40;1.20;;;;;;;14.21;29.47;99769.41;104682;1255;73473;-64
2023/03/30 07:45:55;;;;;;;4.30;2.00;;;;;;;14.28;31.02;99765.85;104955;1248;69403;-64
2023/03/30 07:48:31;;;;;;;3.50;1.80;;;;;;;14.43;30.47;99760.27;105229;1255;72924;-63
2023/03/30 07:51:02;;;;;;;2.20;1.50;;;;;;;14.53;31.23;99765.50;105214;1251;61846;-63
2023/03/30 07:53:32;;;;;;;3.80;1.90;;;;;;;14.69;31.03;99762.31;105373;1260;62188;-65
2023/03/30 07:56:02;;;;;;;3.50;2.00;;;;;;;14.82;30.86;99758.92;105795;1253;73360;-63
2023/03/30 07:58:38;;;;;;;2.90;1.70;;;;;;;14.95;30.19;99755.53;105187;1248;69488;-65
2023/03/30 08:01:09;;;;;;;2.50;1.30;;;;;;;15.00;29.84;99756.10;105400;1252;72745;-64
2023/03/30 08:04:10;;;;;;;1.70;1.30;;;;;;;15.15;30.17;99752.73;104963;1256;61582;-62
2023/03/30 08:06:40;;;;;;;1.50;1.30;;;;;;;15.24;30.76;99750.79;104940;1256;61708;-68
2023/03/30 08:09:09;;;;;;;1.50;1.00;;;;;;;15.30;29.89;99748.84;105376;1250;73656;-66
2023/03/30 08:11:40;;;;;;;5.20;1.80;;;;;;;15.35;29.04;99742.69;105208;1255;69108;-66
2023/03/30 08:14:10;;;;;;;2.30;1.10;;;;;;;15.33;28.90;99736.85;105448;1253;72443;-66
2023/03/30 08:16:38;;;;;;;2.10;1.10;;;;;;;15.17;28.38;99734.45;105421;1253;61567;-67
2023/03/30 08:19:07;;;;;;;3.20;1.10;;;;;;;15.19;29.21;99734.49;105532;1253;61599;-65
2023/03/30 08:21:36;;;;;;;1.30;1.20;;;;;;;15.26;29.32;99731.94;105153;1253;73516;-65
2023/03/30 08:24:06;;;;;;;2.00;1.20;;;;;;;15.35;29.39;99730.71;105154;1260;67600;-66
2023/03/30 08:26:36;;;;;;;2.10;1.30;;;;;;;15.36;28.97;99730.79;105165;1251;72708;-68
2023/03/30 08:29:05;;;;;;;3.90;1.40;;;;;;;15.34;29.71;99722.12;105315;1253;61629;-67
2023/03/30 08:31:36;;;;;;;2.10;1.40;;;;;;;15.38;29.55;99718.70;105014;1254;61586;-66
2023/03/30 08:34:06;;;;;;;2.70;1.60;;;;;;;15.49;30.22;99718.72;104972;1253;74569;-66
2023/03/30 08:36:35;;;;;;;2.20;1.40;;;;;;;15.62;29.33;99714.36;104876;1256;70001;-66
2023/03/30 08:39:09;;;;;;;2.00;1.40;;;;;;;15.65;29.67;99710.14;104802;1253;71430;-66
2023/03/30 08:42:01;;;;;;;2.60;1.30;;;;;;;15.76;29.26;99712.80;104779;1253;61589;-65
2023/03/30 08:44:36;;;;;;;3.60;1.60;;;;;;;15.97;28.67;99704.58;104847;1251;61695;-67
2023/03/30 08:47:12;;;;;;;1.90;1.30;;;;;;;16.08;28.86;99706.70;104983;1255;73433;-67
2023/03/30 08:49:43;;;;;;;1.90;1.30;;;;;;;16.21;28.29;99699.20;104833;1253;68442;-68
2023/03/30 08:52:20;;;;;;;2.90;1.50;;;;;;;16.29;28.18;99696.31;104901;1250;73131;-67
2023/03/30 08:54:50;;;;;;;3.90;1.30;;;;;;;16.00;27.72;99698.21;104989;1250;61701;-69
2023/03/30 08:57:28;;;;;;;1.50;1.00;;;;;;;16.12;28.97;99699.55;105395;1253;61688;-67
2023/03/30 09:01:25;;;;;;;1.90;1.20;;;;;;;15.23;30.80;99703.37;102232;1288;601253;-67
2023/03/30 09:04:05;;;;;;;1.40;1.20;;;;;;;16.94;27.36;99691.47;104768;1263;60464;-68
2023/03/30 09:06:39;;;;;;;1.30;0.90;;;;;;;17.01;26.37;99692.27;104317;1268;60364;-67
2023/03/30 09:09:10;;;;;;;1.00;0.90;;;;;;;17.05;26.61;99687.88;104710;1262;71786;-67
2023/03/30 09:11:40;;;;;;;1.50;0.80;;;;;;;17.04;25.88;99687.80;104437;1266;68626;-68
2023/03/30 09:14:13;;;;;;;1.00;0.90;;;;;;;17.30;26.92;99684.40;104232;1260;375105;-67
2023/03/30 09:16:51;;;;;;;2.10;1.30;;;;;;;17.26;27.19;99684.66;104670;1264;60473;-68
2023/03/30 09:19:32;;;;;;;1.20;1.00;;;;;;;17.44;27.59;99684.86;104970;1254;60570;-67
2023/03/30 09:22:01;;;;;;;1.80;0.90;;;;;;;17.48;25.89;99679.95;104982;1253;71999;-67
2023/03/30 09:24:30;;;;;;;1.60;1.40;;;;;;;17.57;26.07;99682.66;105395;1254;68755;-67
2023/03/30 09:27:41;;;;;;;1.50;1.20;;;;;;;17.57;26.33;99686.58;105532;1252;71348;-67
2023/03/30 09:30:22;;;;;;;1.90;1.40;;;;;;;17.58;25.77;99680.50;105067;1256;60996;-66
2023/03/30 09:33:05;;;;;;;1.80;1.10;;;;;;;17.51;26.60;99675.80;104775;1262;60870;-66
2023/03/30 09:35:42;;;;;;;2.30;1.20;;;;;;;17.59;26.46;99678.69;105179;1250;73445;-66
2023/03/30 09:38:12;;;;;;;1.40;1.00;;;;;;;17.71;26.34;99670.34;104890;1255;68040;-66
2023/03/30 09:40:57;;;;;;;2.60;1.30;;;;;;;17.86;26.76;99672.09;105198;1252;72324;-67
2023/03/30 09:43:34;;;;;;;1.40;1.10;;;;;;;17.92;26.00;99666.71;105029;1248;60958;-66
2023/03/30 09:46:05;;;;;;;1.60;1.00;;;;;;;17.84;25.93;99667.45;104771;1248;61226;-66
2023/03/30 09:48:40;;;;;;;1.40;1.20;;;;;;;17.95;26.47;99668.84;104997;1252;73588;-66
2023/03/30 09:51:24;;;;;;;2.50;1.40;;;;;;;18.11;26.38;99662.38;105027;1251;69722;-66
2023/03/30 09:54:02;;;;;;;2.30;1.60;;;;;;;18.28;25.78;99652.21;105101;1250;72343;-67
2023/03/30 09:56:43;;;;;;;1.90;1.00;;;;;;;18.21;25.14;99645.43;105122;1252;60768;-66
2023/03/30 09:59:31;;;;;;;1.70;1.10;;;;;;;18.39;25.91;99645.52;105141;1248;61336;-67
2023/03/30 10:02:14;;;;;;;1.90;1.70;;;;;;;18.33;24.45;99641.92;105356;1265;72527;-67
2023/03/30 10:04:52;;;;;;;2.30;1.10;;;;;;;18.27;24.97;99632.36;105530;1260;70136;-67
2023/03/30 10:07:33;;;;;;;2.60;1.50;;;;;;;18.33;26.02;99634.77;105463;1252;72158;-65
2023/03/30 10:10:13;;;;;;;2.50;1.60;;;;;;;18.46;25.59;99635.63;105418;1255;61215;-64
2023/03/30 10:12:42;;;;;;;1.50;1.40;;;;;;;18.50;25.48;99628.52;105261;1251;60879;-66
2023/03/30 10:15:17;;;;;;;1.60;1.40;;;;;;;18.56;25.17;99629.48;104631;1256;71438;-70
2023/03/30 10:17:55;;;;;;;5.50;1.40;;;;;;;18.60;25.76;99629.38;105080;1251;69162;-65
2023/03/30 10:20:29;;;;;;;3.00;1.30;;;;;;;18.66;25.67;99626.29;105065;1251;72730;-64
2023/03/30 10:23:16;;;;;;;2.10;1.00;;;;;;;18.70;24.75;99620.48;104930;1262;60870;-65
2023/03/30 10:25:49;;;;;;;1.20;0.90;;;;;;;18.78;25.12;99615.75;105451;1248;60772;-66
2023/03/30 10:28:20;;;;;;;3.60;1.00;;;;;;;18.76;24.57;99614.85;105569;1252;73684;-65
2023/03/30 10:31:12;;;;;;;2.20;1.30;;;;;;;18.95;24.82;99607.50;105756;1249;71547;-63
2023/03/30 10:33:42;;;;;;;1.50;1.20;;;;;;;19.13;25.67;99610.06;105386;1252;73194;-63
2023/03/30 10:36:11;;;;;;;1.30;1.20;;;;;;;19.09;25.49;99605.55;105450;1250;60871;-66
2023/03/30 10:38:39;;;;;;;2.10;1.50;;;;;;;19.07;24.52;99612.98;105181;1247;60870;-69
2023/03/30 10:41:13;;;;;;;4.00;2.10;;;;;;;19.04;24.50;99608.95;104850;1253;72955;-63
2023/03/30 10:43:41;;;;;;;5.00;2.60;;;;;;;19.16;25.03;99610.67;105359;1252;67898;-64
2023/03/30 10:46:16;;;;;;;6.30;3.40;;;;;;;19.31;25.04;99607.75;104821;1251;72235;-71
2023/03/30 10:49:11;;;;;;;3.40;2.30;;;;;;;19.41;24.96;99604.99;105057;1251;60879;-74
2023/03/30 10:52:01;;;;;;;3.50;1.80;;;;;;;19.45;24.22;99595.59;104886;1255;60885;-62
2023/03/30 10:54:37;;;;;;;3.10;1.80;;;;;;;19.50;23.85;99590.57;104982;1249;72364;-62
2023/03/30 10:57:13;;;;;;;2.30;1.20;;;;;;;19.43;24.21;99592.42;104875;1255;70214;-66
2023/03/30 10:59:53;;;;;;;1.40;1.10;;;;;;;19.43;24.04;99588.80;104938;1249;73600;-65
2023/03/30 11:02:53;;;;;;;1.40;1.00;;;;;;;19.53;24.36;99589.22;105629;1252;61312;-65
2023/03/30 11:05:32;;;;;;;1.20;1.00;;;;;;;19.55;24.26;99591.61;105634;1250;60760;-64
2023/03/30 11:08:11;;;;;;;1.20;1.00;;;;;;;19.75;24.09;99585.69;105272;1250;72341;-65
2023/03/30 11:10:43;;;;;;;1.20;1.00;;;;;;;19.58;23.64;99580.48;105479;1249;70178;-65
2023/03/30 11:13:30;;;;;;;0.80;0.70;;;;;;;19.69;24.04;99579.94;105334;1252;72928;-63
2023/03/30 11:16:04;;;;;;;2.50;1.00;;;;;;;19.67;22.94;99579.03;105302;1253;61091;-62
2023/03/30 11:18:41;;;;;;;0.90;0.70;;;;;;;19.69;23.42;99581.02;104981;1251;60832;-62
2023/03/30 11:21:20;;;;;;;1.00;0.80;;;;;;;19.72;24.05;99576.36;104980;1256;72232;-66
2023/03/30 11:23:51;;;;;;;1.00;0.80;;;;;;;19.92;24.31;99569.02;105349;1256;70770;-62
2023/03/30 11:26:36;;;;;;;1.30;1.00;;;;;;;19.93;24.05;99569.52;105169;1252;72351;-62
2023/03/30 11:29:07;;;;;;;1.00;0.60;;;;;;;20.04;23.66;99564.82;105110;1254;60876;-63
2023/03/30 11:31:55;;;;;;;0.90;0.90;;;;;;;20.06;23.47;99564.49;104986;1252;60771;-62
2023/03/30 11:34:25;;;;;;;;;;;;;;;20.04;23.60;99567.65;105012;1256;73466;-62
2023/03/30 11:37:23;;;;;;;0.90;0.70;;;;;;;20.34;23.13;99568.58;105219;1259;70433;-63
2023/03/30 11:39:59;;;;;;;2.30;1.40;;;;;;;20.26;23.48;99565.66;105050;1251;73368;-63
2023/03/30 11:42:31;;;;;;;2.40;1.40;;;;;;;20.31;24.36;99568.77;104909;1262;60828;-63
2023/03/30 11:45:00;;;;;;;1.60;1.10;;;;;;;20.40;23.76;99563.95;105094;1266;60856;-64
2023/03/30 11:47:48;;;;;;;1.60;0.80;;;;;;;20.41;23.21;99557.10;105501;1250;74814;-63
2023/03/30 11:50:37;;;;;;;1.00;0.90;;;;;;;20.62;23.04;99552.49;105098;1251;69749;-63
2023/03/30 11:53:18;;;;;;;0.80;0.60;;;;;;;20.74;23.84;99549.82;105315;1253;73317;-63
2023/03/30 11:55:54;;;;;;;0.80;0.70;;;;;;;20.55;22.81;99541.89;105207;1250;60879;-63
2023/03/30 11:58:36;;;;;;;1.10;0.80;;;;;;;20.60;22.89;99545.58;105104;1254;61006;-63
2023/03/30 12:01:25;;;;;;;2.00;0.70;;;;;;;20.65;22.81;99545.14;105500;1252;74319;-64
2023/03/30 12:04:22;;;;;;;2.30;0.90;;;;;;;20.80;22.75;99537.10;104983;1256;69101;-63
2023/03/30 12:06:52;;;;;;;1.10;0.70;;;;;;;20.99;22.42;99543.42;105269;1256;73232;-63
2023/03/30 12:09:27;;;;;;;1.20;0.70;;;;;;;21.04;22.72;99541.39;105025;1254;60812;-63
2023/03/30 12:12:17;;;;;;;0.90;0.50;;;;;;;21.24;22.32;99536.16;105554;1250;60872;-67
2023/03/30 12:14:57;;;;;;;1.00;0.70;;;;;;;21.39;22.73;99537.92;105386;1262;73222;-66
2023/03/30 12:17:53;;;;;;;1.10;0.70;;;;;;;21.38;22.44;99543.35;105456;1250;67703;-67